Terminal Aerodrome Forecast
Issued by NWS Atlanta, GA

Home | Current Version | Previous Version | Text Only | Print | Product List | Glossary On
Versions: 1 2 3 4 5 6 7 8 9 10 11 12 13 14 15 16 17 18 19 20 21 22 23 24 25 26 27 28 29 30 31 32
000
FTUS42 KFFC 310338 AAB
TAFAHN
TAF AMD
KAHN 310338Z 3104/3124 06004KT P6SM BKN012
     FM311000 08003KT 4SM BR BKN008
     FM311400 08004KT 6SM BR BKN012
     FM311600 07005KT P6SM BKN020
     FM311900 06006KT P6SM SCT025 SCT250=

USA.gov is the U.S. government's official web portal to all federal, state and local government web resources and services.